Time;durP1;ratioP1;P1;durP2;ratioP2;P2;SDS_P1;SDS_P2;PMS_P1;PMS_P2;Temp;Humidity;BMP_temperature;BMP_pressure;BME280_temperature;BME280_humidity;BME280_pressure;Samples;Min_cycle;Max_cycle;Signal;HPM_P1;HPM_P2
2023/08/07 00:01:17;;;;;;;17.30;8.00;;;14.10;99.90;;;;;;5013913;28;20546;-66
2023/08/07 00:03:44;;;;;;;7.10;5.70;;;14.10;99.90;;;;;;5002241;28;20487;-65
2023/08/07 00:06:11;;;;;;;13.70;8.93;;;14.00;99.90;;;;;;5019598;28;20507;-66
2023/08/07 00:08:38;;;;;;;11.37;4.97;;;13.90;99.90;;;;;;5012769;28;20488;-67
2023/08/07 00:11:08;;;;;;;12.67;7.27;;;14.00;99.90;;;;;;5009459;28;20488;-67
2023/08/07 00:13:35;;;;;;;8.30;5.10;;;13.90;99.90;;;;;;5011607;28;20475;-66
2023/08/07 00:16:04;;;;;;;8.67;6.03;;;14.00;99.90;;;;;;5006796;28;21048;-68
2023/08/07 00:18:31;;;;;;;8.57;5.37;;;13.90;99.90;;;;;;5013572;28;20868;-67
2023/08/07 00:20:58;;;;;;;8.23;5.17;;;13.90;99.90;;;;;;5022676;28;20475;-66
2023/08/07 00:23:25;;;;;;;10.20;6.00;;;13.90;99.90;;;;;;5006732;28;21351;-67
2023/08/07 00:25:52;;;;;;;12.10;6.10;;;14.00;99.90;;;;;;5013876;28;20479;-66
2023/08/07 00:28:18;;;;;;;11.20;7.90;;;13.90;99.90;;;;;;4997864;28;20550;-66
2023/08/07 00:30:45;;;;;;;7.67;5.73;;;13.90;99.90;;;;;;5020398;28;20508;-67
2023/08/07 00:33:13;;;;;;;14.30;9.07;;;13.90;99.90;;;;;;5013030;28;20992;-66
2023/08/07 00:35:40;;;;;;;10.47;7.43;;;13.80;99.90;;;;;;5018856;28;20491;-66
2023/08/07 00:38:08;;;;;;;13.97;9.10;;;13.80;99.90;;;;;;5003459;28;20477;-66
2023/08/07 00:40:38;;;;;;;5.40;3.97;;;13.90;99.90;;;;;;5011769;28;20818;-66
2023/08/07 00:43:05;;;;;;;10.90;7.37;;;13.10;99.90;;;;;;5008723;28;20705;-66
2023/08/07 00:45:36;;;;;;;13.00;6.00;;;14.00;99.90;;;;;;5009558;28;20842;-66
2023/08/07 00:48:03;;;;;;;15.73;6.27;;;14.10;99.90;;;;;;5018446;28;20498;-66
2023/08/07 00:50:31;;;;;;;7.17;6.13;;;14.00;99.90;;;;;;5000382;28;20490;-66
2023/08/07 00:52:59;;;;;;;9.23;6.73;;;14.00;99.90;;;;;;5025465;28;20893;-65
2023/08/07 00:55:26;;;;;;;14.30;6.33;;;14.00;99.90;;;;;;5014797;28;21449;-66
2023/08/07 00:57:54;;;;;;;9.47;5.60;;;14.00;99.90;;;;;;5014463;28;20478;-66
2023/08/07 01:00:21;;;;;;;9.00;6.30;;;14.10;99.90;;;;;;5012734;28;20881;-67
2023/08/07 01:02:50;;;;;;;9.73;5.90;;;13.90;99.90;;;;;;5005527;28;20491;-66
2023/08/07 01:05:18;;;;;;;13.70;9.57;;;13.90;99.90;;;;;;5005525;28;20491;-67
2023/08/07 01:07:51;;;;;;;6.07;4.30;;;13.70;99.90;;;;;;5019210;28;20483;-67
2023/08/07 01:10:18;;;;;;;13.90;7.87;;;13.70;99.90;;;;;;5012026;28;20898;-67
2023/08/07 01:12:50;;;;;;;10.43;5.80;;;13.60;99.90;;;;;;5008785;28;20499;-66
2023/08/07 01:15:22;;;;;;;18.93;11.63;;;13.50;99.90;;;;;;5002191;28;20494;-66
2023/08/07 01:17:51;;;;;;;13.97;6.00;;;13.60;99.90;;;;;;5018897;28;20500;-65
2023/08/07 01:20:19;;;;;;;12.83;8.43;;;13.50;99.90;;;;;;5015593;28;20888;-65
2023/08/07 01:22:47;;;;;;;9.80;6.67;;;13.60;99.90;;;;;;5012365;28;20470;-67
2023/08/07 01:25:14;;;;;;;14.63;8.73;;;13.60;99.90;;;;;;4992617;28;21021;-66
2023/08/07 01:27:51;;;;;;;8.77;5.90;;;13.40;99.90;;;;;;5022038;28;20491;-66
2023/08/07 01:30:23;;;;;;;14.33;7.80;;;13.40;99.90;;;;;;5007356;28;21536;-66
2023/08/07 01:32:59;;;;;;;7.90;5.90;;;13.40;99.90;;;;;;5013084;28;20839;-66
2023/08/07 01:35:31;;;;;;;7.60;5.90;;;13.40;99.90;;;;;;4996138;28;20656;-66
2023/08/07 01:38:00;;;;;;;15.63;6.87;;;13.30;99.90;;;;;;5000582;28;20949;-66
2023/08/07 01:40:28;;;;;;;10.27;6.30;;;13.20;99.90;;;;;;5010109;28;20484;-67
2023/08/07 01:42:56;;;;;;;10.57;7.10;;;13.20;99.90;;;;;;5008713;28;20900;-66
2023/08/07 01:45:24;;;;;;;9.17;6.73;;;13.20;99.90;;;;;;5012565;28;20485;-67
2023/08/07 01:47:52;;;;;;;7.10;5.00;;;13.10;99.90;;;;;;5001113;28;20477;-66
2023/08/07 01:50:19;;;;;;;12.37;8.43;;;13.00;99.90;;;;;;5016909;28;20510;-66
2023/08/07 01:52:46;;;;;;;11.30;6.60;;;13.00;99.90;;;;;;5011791;28;20918;-66
2023/08/07 01:55:16;;;;;;;15.83;10.00;;;14.50;99.90;;;;;;5012676;28;20481;-67
2023/08/07 01:57:43;;;;;;;8.87;5.80;;;12.90;99.90;;;;;;5007685;28;20505;-66
2023/08/07 02:00:11;;;;;;;13.97;9.00;;;12.90;99.90;;;;;;5008256;28;20771;-67
2023/08/07 02:02:38;;;;;;;9.87;5.53;;;12.90;99.90;;;;;;5017020;28;20505;-67
2023/08/07 02:05:06;;;;;;;16.70;9.07;;;12.80;99.90;;;;;;5015521;28;20511;-67
2023/08/07 02:07:33;;;;;;;9.50;5.90;;;12.80;99.90;;;;;;5000704;28;21010;-66
2023/08/07 02:10:00;;;;;;;12.13;8.47;;;12.70;99.90;;;;;;5015171;28;20621;-67
2023/08/07 02:12:32;;;;;;;10.30;7.83;;;12.60;99.90;;;;;;5010729;28;20473;-67
2023/08/07 02:14:59;;;;;;;9.20;6.87;;;12.70;99.90;;;;;;4994298;28;20961;-66
2023/08/07 02:17:26;;;;;;;10.17;6.73;;;12.70;99.90;;;;;;5023060;28;20489;-67
2023/08/07 02:19:53;;;;;;;10.97;7.60;;;12.70;99.90;;;;;;5008572;28;20472;-67
2023/08/07 02:22:20;;;;;;;10.93;6.97;;;12.60;99.90;;;;;;5028205;28;20686;-67
2023/08/07 02:24:47;;;;;;;8.80;6.90;;;12.60;99.90;;;;;;4999270;28;20484;-68
2023/08/07 02:27:13;;;;;;;15.23;9.67;;;12.50;99.90;;;;;;5005250;28;20864;-67
2023/08/07 02:29:42;;;;;;;8.10;6.70;;;12.60;99.90;;;;;;5008925;28;20486;-67
2023/08/07 02:32:08;;;;;;;16.17;11.43;;;12.70;99.90;;;;;;5022193;28;20749;-67
2023/08/07 02:34:35;;;;;;;9.67;6.13;;;12.60;99.90;;;;;;5013938;28;20569;-67
2023/08/07 02:37:02;;;;;;;12.83;6.90;;;12.70;99.90;;;;;;5017031;28;20724;-66
2023/08/07 02:39:29;;;;;;;15.67;8.97;;;12.70;99.90;;;;;;5015315;28;20510;-68
2023/08/07 02:41:56;;;;;;;9.00;6.33;;;12.60;99.90;;;;;;5014430;28;20544;-67
2023/08/07 02:44:23;;;;;;;9.00;5.60;;;12.60;99.90;;;;;;5020147;28;20474;-68
2023/08/07 02:46:51;;;;;;;9.93;6.03;;;12.70;99.90;;;;;;5019210;28;20484;-67
2023/08/07 02:49:18;;;;;;;13.67;8.70;;;12.60;99.90;;;;;;5017657;28;20875;-67
2023/08/07 02:51:45;;;;;;;8.43;5.60;;;12.60;99.90;;;;;;5032735;28;20910;-67
2023/08/07 02:54:12;;;;;;;15.23;9.23;;;12.50;99.90;;;;;;5021152;28;20582;-67
2023/08/07 02:56:38;;;;;;;8.57;5.97;;;12.50;99.90;;;;;;5014131;28;20479;-66
2023/08/07 02:59:06;;;;;;;11.63;7.60;;;12.50;99.90;;;;;;5024665;28;20505;-67
2023/08/07 03:01:32;;;;;;;15.03;7.60;;;12.60;99.90;;;;;;5002154;28;20482;-67
2023/08/07 03:04:01;;;;;;;9.33;6.73;;;12.60;99.90;;;;;;5025228;28;20475;-67
2023/08/07 03:06:28;;;;;;;9.40;6.57;;;12.60;99.90;;;;;;5015041;28;21008;-68
2023/08/07 03:08:55;;;;;;;9.33;6.77;;;12.50;99.90;;;;;;5033680;28;20478;-67
2023/08/07 03:11:21;;;;;;;9.57;6.57;;;12.50;99.90;;;;;;5022402;28;20947;-67
2023/08/07 03:13:49;;;;;;;10.87;6.60;;;12.50;99.90;;;;;;5021581;28;20570;-68
2023/08/07 03:16:16;;;;;;;13.70;9.20;;;12.50;99.90;;;;;;5017558;28;20524;-67
2023/08/07 03:18:43;;;;;;;7.77;5.33;;;12.50;99.90;;;;;;5026293;28;20483;-66
2023/08/07 03:21:12;;;;;;;14.37;8.97;;;12.50;99.90;;;;;;4993949;28;20575;-66
2023/08/07 03:23:38;;;;;;;9.90;6.83;;;12.60;99.90;;;;;;5027097;28;20478;-67
2023/08/07 03:26:06;;;;;;;15.20;9.00;;;12.60;99.90;;;;;;5012303;28;20486;-67
2023/08/07 03:28:35;;;;;;;8.80;6.20;;;12.60;99.90;;;;;;5024492;28;21170;-67
2023/08/07 03:31:02;;;;;;;11.07;6.47;;;12.50;99.90;;;;;;5020328;28;21004;-65
2023/08/07 03:33:30;;;;;;;8.50;6.20;;;12.50;99.90;;;;;;4990095;28;20582;-66
2023/08/07 03:35:56;;;;;;;10.40;6.97;;;12.60;99.90;;;;;;5010854;28;20468;-65
2023/08/07 03:38:25;;;;;;;11.20;5.63;;;12.60;99.90;;;;;;5019498;28;20572;-66
2023/08/07 03:40:52;;;;;;;13.53;6.50;;;12.60;99.90;;;;;;5024256;28;20561;-67
2023/08/07 03:43:19;;;;;;;14.80;8.33;;;12.50;99.90;;;;;;5001934;28;20482;-66
2023/08/07 03:45:46;;;;;;;8.30;5.93;;;12.50;99.90;;;;;;5013430;28;20769;-66
2023/08/07 03:48:13;;;;;;;15.80;9.80;;;12.50;99.90;;;;;;5012620;28;20888;-67
2023/08/07 03:50:39;;;;;;;10.90;6.07;;;12.50;99.90;;;;;;5023012;28;20477;-67
2023/08/07 03:53:07;;;;;;;15.83;9.50;;;12.50;99.90;;;;;;5015045;28;20477;-65
2023/08/07 03:55:36;;;;;;;11.07;7.07;;;12.60;99.90;;;;;;4997445;28;20835;-66
2023/08/07 03:58:03;;;;;;;9.33;6.57;;;12.50;99.90;;;;;;5022992;28;20483;-65
2023/08/07 04:00:30;;;;;;;8.37;4.97;;;12.60;99.90;;;;;;5028089;28;20494;-67
2023/08/07 04:02:57;;;;;;;12.07;7.70;;;12.50;99.90;;;;;;4998297;28;20556;-67
2023/08/07 04:05:24;;;;;;;11.73;7.30;;;12.50;99.90;;;;;;4987252;28;20567;-66
2023/08/07 04:07:51;;;;;;;8.20;5.43;;;12.40;99.90;;;;;;5009985;28;20501;-66
2023/08/07 04:10:18;;;;;;;12.90;6.80;;;12.40;99.90;;;;;;5013226;28;20529;-67
2023/08/07 04:12:46;;;;;;;9.17;5.80;;;12.40;99.90;;;;;;5025349;28;20483;-66
2023/08/07 04:15:13;;;;;;;16.03;8.80;;;12.50;99.90;;;;;;5015730;28;21503;-66
2023/08/07 04:17:40;;;;;;;9.90;5.97;;;12.60;99.90;;;;;;5015056;28;20568;-67
2023/08/07 04:20:09;;;;;;;18.13;9.13;;;12.60;99.90;;;;;;5011322;28;20496;-66
2023/08/07 04:22:36;;;;;;;13.70;6.57;;;12.50;99.90;;;;;;5002123;28;20505;-67
2023/08/07 04:25:04;;;;;;;15.87;7.57;;;12.50;99.90;;;;;;5005507;28;20500;-67
2023/08/07 04:27:30;;;;;;;14.70;7.93;;;12.50;99.90;;;;;;5012180;28;20922;-67
2023/08/07 04:29:59;;;;;;;10.07;6.43;;;12.40;99.90;;;;;;5007056;28;20507;-66
2023/08/07 04:32:26;;;;;;;13.20;6.60;;;12.40;99.90;;;;;;5013029;28;20492;-67
2023/08/07 04:34:52;;;;;;;15.20;7.80;;;12.40;99.90;;;;;;5015202;28;20483;-67
2023/08/07 04:37:19;;;;;;;12.50;8.20;;;12.40;99.90;;;;;;5017389;28;20475;-67
2023/08/07 04:39:46;;;;;;;12.20;6.00;;;12.40;99.90;;;;;;5020340;28;20553;-67
2023/08/07 04:42:16;;;;;;;19.53;11.20;;;12.30;99.90;;;;;;5000251;28;20649;-66
2023/08/07 04:44:43;;;;;;;9.77;6.20;;;12.40;99.90;;;;;;5012206;28;20478;-67
2023/08/07 04:47:11;;;;;;;14.63;8.10;;;12.40;99.90;;;;;;5002322;28;20506;-67
2023/08/07 04:49:38;;;;;;;11.63;5.77;;;12.40;99.90;;;;;;5023367;28;20478;-66
2023/08/07 04:52:06;;;;;;;19.77;11.47;;;12.50;99.90;;;;;;5018668;28;20787;-66
2023/08/07 04:54:32;;;;;;;13.50;6.87;;;12.50;99.90;;;;;;5004861;28;20972;-66
2023/08/07 04:56:59;;;;;;;9.93;5.70;;;12.60;99.90;;;;;;5001869;28;20865;-66
2023/08/07 04:59:26;;;;;;;10.57;5.43;;;12.50;99.90;;;;;;5026792;28;20493;-66
2023/08/07 05:01:53;;;;;;;14.30;6.50;;;12.60;99.90;;;;;;5002045;28;20494;-67
2023/08/07 05:04:21;;;;;;;18.20;8.00;;;12.70;99.90;;;;;;5012949;28;21092;-67
2023/08/07 05:06:48;;;;;;;6.83;5.30;;;12.80;99.90;;;;;;5020767;28;20713;-67
2023/08/07 05:09:16;;;;;;;14.73;9.10;;;12.80;99.90;;;;;;5004251;28;21155;-67
2023/08/07 05:11:43;;;;;;;9.30;6.20;;;13.00;99.90;;;;;;5018443;28;20497;-67
2023/08/07 05:14:10;;;;;;;16.00;9.93;;;13.00;99.90;;;;;;5015539;28;20525;-67
2023/08/07 05:16:37;;;;;;;8.60;6.07;;;13.00;99.90;;;;;;5001929;28;20793;-67
2023/08/07 05:19:04;;;;;;;15.40;9.97;;;13.10;99.90;;;;;;4998783;28;20916;-66
2023/08/07 05:21:32;;;;;;;7.63;5.83;;;13.10;99.90;;;;;;5014024;28;20838;-66
2023/08/07 05:23:59;;;;;;;7.83;5.80;;;13.20;99.90;;;;;;5029520;28;20540;-68
2023/08/07 05:26:26;;;;;;;7.07;5.33;;;13.20;99.90;;;;;;5011683;28;20493;-67
2023/08/07 05:28:54;;;;;;;8.60;6.20;;;13.30;99.90;;;;;;5009974;28;20905;-67
2023/08/07 05:31:21;;;;;;;12.27;7.20;;;13.30;99.90;;;;;;5012987;28;20484;-65
2023/08/07 05:33:48;;;;;;;9.30;6.20;;;13.30;99.90;;;;;;5027573;28;20486;-67
2023/08/07 05:36:14;;;;;;;13.27;8.43;;;14.60;99.90;;;;;;5003568;28;20522;-67
2023/08/07 05:38:43;;;;;;;11.80;9.03;;;13.20;99.90;;;;;;5025781;28;20494;-66
2023/08/07 05:41:10;;;;;;;17.83;10.33;;;13.20;99.90;;;;;;4996415;28;20816;-66
2023/08/07 05:43:37;;;;;;;8.73;6.00;;;13.30;99.90;;;;;;5023770;28;20567;-67
2023/08/07 05:46:03;;;;;;;9.87;6.80;;;13.30;99.90;;;;;;5011509;28;20484;-64
2023/08/07 05:48:30;;;;;;;20.90;8.13;;;13.30;99.90;;;;;;5017215;28;20572;-65
2023/08/07 05:50:57;;;;;;;8.97;6.80;;;13.40;99.90;;;;;;5026316;28;20490;-66
2023/08/07 05:53:24;;;;;;;8.23;5.40;;;13.50;99.90;;;;;;5012958;28;20621;-66
2023/08/07 05:55:52;;;;;;;10.53;5.93;;;13.50;99.90;;;;;;5017464;28;20496;-66
2023/08/07 05:58:19;;;;;;;11.87;8.07;;;13.40;99.90;;;;;;5023689;28;20471;-66
2023/08/07 06:00:46;;;;;;;12.47;5.97;;;13.50;99.90;;;;;;5012980;28;20486;-66
2023/08/07 06:03:13;;;;;;;18.27;11.20;;;13.60;99.90;;;;;;5037026;28;20497;-67
2023/08/07 06:05:40;;;;;;;11.00;6.07;;;13.50;99.90;;;;;;5021505;28;20670;-68
2023/08/07 06:08:07;;;;;;;10.57;8.13;;;13.60;99.90;;;;;;5018189;28;20814;-66
2023/08/07 06:10:34;;;;;;;8.40;5.77;;;13.60;99.90;;;;;;5009393;28;20482;-67
2023/08/07 06:13:03;;;;;;;7.87;6.10;;;13.70;99.90;;;;;;5011941;28;21003;-67
2023/08/07 06:15:31;;;;;;;14.57;5.70;;;13.80;99.90;;;;;;5001591;28;21157;-69
2023/08/07 06:17:57;;;;;;;10.27;6.50;;;13.90;99.90;;;;;;5023999;28;20557;-67
2023/08/07 06:20:24;;;;;;;10.30;4.67;;;13.90;99.90;;;;;;5012102;28;20484;-68
2023/08/07 06:22:52;;;;;;;8.23;4.47;;;14.00;99.90;;;;;;5007580;28;21116;-67
2023/08/07 06:25:19;;;;;;;10.57;6.00;;;14.00;99.90;;;;;;5015417;28;20490;-67
2023/08/07 06:27:46;;;;;;;8.77;6.77;;;14.10;99.90;;;;;;5009956;28;20470;-67
2023/08/07 06:30:15;;;;;;;11.10;7.50;;;14.20;99.90;;;;;;5020626;28;20573;-66
2023/08/07 06:32:42;;;;;;;7.30;5.53;;;14.30;99.90;;;;;;5014110;28;20483;-66
2023/08/07 06:35:09;;;;;;;15.53;10.67;;;14.40;99.90;;;;;;5009157;28;20567;-67
2023/08/07 06:37:36;;;;;;;8.60;4.80;;;14.50;99.90;;;;;;5010694;28;20508;-65
2023/08/07 06:40:04;;;;;;;7.80;6.27;;;14.60;99.90;;;;;;5024658;28;20565;-67
2023/08/07 06:42:31;;;;;;;9.33;5.03;;;14.70;99.90;;;;;;5023417;28;20469;-66
2023/08/07 06:44:57;;;;;;;5.80;4.60;;;14.70;99.90;;;;;;5013099;28;20978;-65
2023/08/07 06:47:26;;;;;;;7.63;5.63;;;14.80;99.90;;;;;;5016527;28;21076;-66
2023/08/07 06:49:53;;;;;;;7.10;5.30;;;14.90;99.90;;;;;;5040075;28;20498;-66
2023/08/07 06:52:19;;;;;;;8.00;4.80;;;15.00;99.90;;;;;;5015734;28;21066;-66
2023/08/07 06:54:46;;;;;;;6.43;4.77;;;15.20;99.90;;;;;;5010635;28;20479;-64
2023/08/07 06:57:13;;;;;;;11.50;8.20;;;15.20;99.90;;;;;;5027416;28;20575;-66
2023/08/07 06:59:40;;;;;;;9.10;4.77;;;15.30;99.90;;;;;;5023431;28;20921;-66
2023/08/07 07:02:07;;;;;;;9.83;4.53;;;15.40;99.90;;;;;;5008551;28;20998;-67
2023/08/07 07:04:36;;;;;;;4.33;3.87;;;15.50;99.90;;;;;;5017411;28;20474;-66
2023/08/07 07:07:03;;;;;;;11.53;4.90;;;15.70;99.90;;;;;;5015478;28;20495;-66
2023/08/07 07:09:30;;;;;;;6.87;5.07;;;15.90;99.90;;;;;;5016710;28;21029;-66
2023/08/07 07:11:57;;;;;;;4.90;3.70;;;15.90;99.90;;;;;;5016679;28;20562;-67
2023/08/07 07:14:24;;;;;;;7.10;3.73;;;16.40;99.90;;;;;;5010347;28;20669;-67
2023/08/07 07:16:51;;;;;;;5.37;4.20;;;16.40;99.90;;;;;;5021557;28;20633;-66
2023/08/07 07:19:18;;;;;;;8.70;6.20;;;16.40;99.90;;;;;;5014352;28;20569;-65
2023/08/07 07:21:46;;;;;;;6.27;3.77;;;16.50;99.90;;;;;;5014460;28;20473;-67
2023/08/07 07:24:13;;;;;;;7.17;6.40;;;16.50;99.90;;;;;;5017660;28;20534;-67
2023/08/07 07:26:40;;;;;;;5.90;4.83;;;16.60;99.90;;;;;;5017471;28;20578;-65
2023/08/07 07:29:07;;;;;;;7.70;5.53;;;16.60;99.90;;;;;;5015029;28;20522;-65
2023/08/07 07:31:34;;;;;;;7.47;5.63;;;16.70;99.90;;;;;;5008819;28;21296;-65
2023/08/07 07:34:01;;;;;;;5.83;4.80;;;16.70;99.90;;;;;;5009188;28;20890;-65
2023/08/07 07:36:28;;;;;;;4.63;4.23;;;16.90;99.90;;;;;;4996648;28;20478;-65
2023/08/07 07:38:56;;;;;;;5.17;4.30;;;16.90;99.90;;;;;;5018741;28;21007;-66
2023/08/07 07:41:23;;;;;;;6.90;4.20;;;16.90;99.90;;;;;;5010817;28;20550;-67
2023/08/07 07:43:50;;;;;;;19.47;11.13;;;17.00;99.90;;;;;;5020138;28;20481;-65
2023/08/07 07:46:17;;;;;;;8.63;6.60;;;17.00;99.90;;;;;;5016970;28;20484;-66
2023/08/07 07:48:44;;;;;;;7.20;4.33;;;17.30;99.90;;;;;;5010272;28;20882;-65
2023/08/07 07:51:11;;;;;;;7.87;6.40;;;17.30;99.90;;;;;;5020145;28;21054;-65
2023/08/07 07:53:38;;;;;;;7.43;5.63;;;17.30;99.90;;;;;;5002369;28;20994;-64
2023/08/07 07:56:06;;;;;;;7.10;4.97;;;17.60;99.90;;;;;;5030455;28;20523;-67
2023/08/07 07:58:33;;;;;;;7.13;5.30;;;17.70;99.70;;;;;;5008143;28;20830;-64
2023/08/07 08:01:00;;;;;;;4.50;4.10;;;17.80;99.90;;;;;;5018076;28;20528;-64
2023/08/07 08:03:27;;;;;;;5.80;4.80;;;17.80;99.70;;;;;;5011172;28;20491;-65
2023/08/07 08:05:54;;;;;;;4.10;3.80;;;18.10;99.50;;;;;;5013182;28;20448;-64
2023/08/07 08:08:21;;;;;;;9.40;5.40;;;18.00;98.20;;;;;;4997498;28;20973;-66
2023/08/07 08:10:48;;;;;;;6.20;4.53;;;18.10;98.30;;;;;;5000250;28;20493;-66
2023/08/07 08:13:16;;;;;;;10.63;6.70;;;18.20;98.20;;;;;;5021962;28;20458;-65
2023/08/07 08:15:43;;;;;;;4.90;3.80;;;18.20;98.20;;;;;;4987644;28;20938;-66
2023/08/07 08:18:11;;;;;;;7.07;5.40;;;18.30;98.50;;;;;;5026367;28;20477;-64
2023/08/07 08:20:38;;;;;;;6.07;4.40;;;18.20;98.20;;;;;;5011646;28;20989;-65
2023/08/07 08:23:05;;;;;;;7.33;6.60;;;18.20;97.00;;;;;;5003194;28;20489;-66
2023/08/07 08:25:33;;;;;;;5.97;4.47;;;18.30;98.40;;;;;;5000636;28;20584;-64
2023/08/07 08:28:00;;;;;;;5.07;4.57;;;18.10;97.70;;;;;;5026244;28;20504;-66
2023/08/07 08:30:29;;;;;;;7.30;4.20;;;18.40;97.40;;;;;;5009913;28;20811;-65
2023/08/07 08:32:56;;;;;;;5.10;4.60;;;18.60;97.80;;;;;;5027380;28;20552;-65
2023/08/07 08:35:23;;;;;;;6.90;4.30;;;18.80;97.90;;;;;;5014908;28;20505;-64
2023/08/07 08:37:50;;;;;;;4.20;3.70;;;19.10;97.70;;;;;;5019674;28;20494;-63
2023/08/07 08:40:19;;;;;;;6.50;5.90;;;19.20;97.20;;;;;;5014676;28;21166;-62
2023/08/07 08:42:46;;;;;;;5.67;4.00;;;19.20;96.50;;;;;;5010739;28;21057;-64
2023/08/07 08:45:15;;;;;;;9.90;6.00;;;19.10;97.00;;;;;;5006993;28;20490;-64
2023/08/07 08:47:44;;;;;;;6.50;4.30;;;19.10;96.60;;;;;;5014127;28;20472;-65
2023/08/07 08:50:14;;;;;;;8.17;6.70;;;18.90;96.80;;;;;;5011660;28;20484;-66
2023/08/07 08:52:43;;;;;;;5.83;3.93;;;18.80;96.20;;;;;;5026611;28;20483;-65
2023/08/07 08:55:11;;;;;;;11.90;5.57;;;18.70;96.10;;;;;;5007385;28;20490;-63
2023/08/07 08:57:39;;;;;;;5.33;4.50;;;18.70;96.90;;;;;;5004371;28;21035;-65
2023/08/07 09:00:17;;;;;;;8.20;5.07;;;18.60;96.10;;;;;;5018356;28;20489;-64
2023/08/07 09:02:46;;;;;;;7.40;4.80;;;18.60;96.80;;;;;;4995547;28;20479;-64
2023/08/07 09:05:13;;;;;;;6.20;5.60;;;18.50;96.30;;;;;;5009850;28;20482;-65
2023/08/07 09:07:40;;;;;;;4.73;4.30;;;18.50;95.70;;;;;;5012684;28;20488;-64
2023/08/07 09:10:08;;;;;;;6.53;5.70;;;18.40;96.20;;;;;;5022194;28;20477;-65
2023/08/07 09:12:39;;;;;;;7.10;4.33;;;18.40;96.60;;;;;;5007046;28;20962;-65
2023/08/07 09:15:08;;;;;;;5.77;5.07;;;18.30;97.60;;;;;;5022244;28;21952;-66
2023/08/07 09:17:40;;;;;;;5.07;4.10;;;18.10;96.60;;;;;;5004159;28;20483;-65
2023/08/07 09:20:13;;;;;;;5.77;4.20;;;18.20;97.60;;;;;;5008779;28;20489;-65
2023/08/07 09:22:40;;;;;;;5.77;4.60;;;18.40;96.70;;;;;;5012458;28;20468;-64
2023/08/07 09:25:09;;;;;;;7.27;5.07;;;18.60;97.30;;;;;;5012087;28;20454;-65
2023/08/07 09:27:37;;;;;;;4.90;4.50;;;18.80;96.60;;;;;;5010808;28;20488;-66
2023/08/07 09:30:07;;;;;;;6.97;5.27;;;18.90;97.20;;;;;;5019966;28;20476;-66
2023/08/07 09:32:34;;;;;;;4.97;4.10;;;18.80;96.40;;;;;;5019662;28;20508;-65
2023/08/07 09:35:03;;;;;;;4.77;4.27;;;19.00;96.90;;;;;;5010271;28;20909;-67
2023/08/07 09:37:31;;;;;;;3.97;3.57;;;19.10;97.30;;;;;;5031209;28;20580;-65
2023/08/07 09:40:02;;;;;;;6.50;4.10;;;18.80;95.70;;;;;;5000600;28;20482;-65
2023/08/07 09:42:33;;;;;;;6.00;4.10;;;19.10;96.40;;;;;;5016044;28;20482;-64
2023/08/07 09:45:01;;;;;;;7.00;4.27;;;19.20;96.30;;;;;;5010810;28;20473;-64
2023/08/07 09:47:29;;;;;;;6.40;4.03;;;19.40;97.00;;;;;;5025727;28;20583;-65
2023/08/07 09:49:56;;;;;;;7.30;4.83;;;19.30;96.00;;;;;;5020874;28;21016;-65
2023/08/07 09:52:27;;;;;;;4.20;3.80;;;19.30;96.60;;;;;;5010586;28;20472;-64
2023/08/07 09:54:58;;;;;;;5.53;4.80;;;19.30;96.10;;;;;;5010311;28;20667;-65
2023/08/07 09:57:25;;;;;;;4.33;3.23;;;17.70;95.10;;;;;;5006244;28;20479;-65
2023/08/07 09:59:53;;;;;;;6.17;4.87;;;19.10;96.10;;;;;;5016698;28;20447;-64
2023/08/07 10:02:21;;;;;;;8.73;5.03;;;19.20;95.60;;;;;;5016576;28;21024;-65
2023/08/07 10:04:50;;;;;;;4.50;4.10;;;19.10;95.70;;;;;;5020130;28;20475;-64
2023/08/07 10:07:17;;;;;;;7.27;5.47;;;19.00;95.60;;;;;;5013147;28;20895;-65
2023/08/07 10:09:46;;;;;;;4.27;3.87;;;19.00;95.70;;;;;;5018976;28;20478;-65
2023/08/07 10:12:17;;;;;;;7.30;5.30;;;19.30;96.20;;;;;;5018333;28;20556;-66
2023/08/07 10:14:45;;;;;;;4.60;4.10;;;19.50;97.20;;;;;;5019403;28;20567;-66
2023/08/07 10:17:12;;;;;;;6.10;5.50;;;19.90;96.40;;;;;;5003862;28;20480;-66
2023/08/07 10:19:39;;;;;;;5.77;4.93;;;20.10;95.40;;;;;;5012111;28;21202;-66
2023/08/07 10:22:07;;;;;;;4.77;4.27;;;20.20;94.20;;;;;;5009105;28;20466;-66
2023/08/07 10:24:37;;;;;;;4.47;4.07;;;20.10;93.80;;;;;;5012084;28;20486;-66
2023/08/07 10:27:06;;;;;;;6.77;5.07;;;19.80;93.80;;;;;;5027955;28;20599;-64
2023/08/07 10:29:35;;;;;;;8.50;4.03;;;19.60;94.00;;;;;;5015082;28;20584;-63
2023/08/07 10:32:03;;;;;;;4.30;3.97;;;19.20;93.40;;;;;;5013683;28;20478;-66
2023/08/07 10:34:31;;;;;;;5.40;4.03;;;19.00;93.30;;;;;;5030394;28;20486;-65
2023/08/07 10:36:58;;;;;;;5.23;3.90;;;19.00;94.40;;;;;;5022793;28;21037;-65
2023/08/07 10:39:24;;;;;;;7.33;6.63;;;19.00;94.70;;;;;;4999586;28;20475;-64
2023/08/07 10:41:54;;;;;;;6.40;4.27;;;19.00;94.50;;;;;;5024572;28;20626;-65
2023/08/07 10:44:22;;;;;;;6.17;4.60;;;19.10;95.30;;;;;;5010458;28;20486;-66
2023/08/07 10:46:52;;;;;;;4.77;4.13;;;18.90;94.90;;;;;;5021637;28;20479;-64
2023/08/07 10:49:36;;;;;;;11.33;6.10;;;19.10;95.50;;;;;;4997040;28;20555;-65
2023/08/07 10:52:04;;;;;;;4.40;3.67;;;19.30;96.60;;;;;;5010009;28;20800;-66
2023/08/07 10:54:31;;;;;;;8.70;4.43;;;19.40;95.00;;;;;;5025946;28;20468;-65
2023/08/07 10:57:01;;;;;;;7.20;4.20;;;19.70;96.00;;;;;;5020885;28;20542;-66
2023/08/07 10:59:31;;;;;;;5.07;4.23;;;19.90;94.10;;;;;;5016570;28;20586;-65
2023/08/07 11:02:00;;;;;;;5.00;3.80;;;19.80;94.30;;;;;;5007274;28;20482;-65
2023/08/07 11:04:27;;;;;;;4.43;4.03;;;19.90;94.50;;;;;;5022291;28;20673;-66
2023/08/07 11:06:54;;;;;;;4.07;3.67;;;19.70;94.70;;;;;;5013950;28;21142;-66
2023/08/07 11:09:21;;;;;;;6.83;4.50;;;19.50;94.10;;;;;;5015788;28;20517;-65
2023/08/07 11:11:49;;;;;;;16.10;6.73;;;19.20;93.90;;;;;;5022229;28;20869;-66
2023/08/07 11:14:18;;;;;;;6.27;5.73;;;19.40;94.90;;;;;;4992124;28;20956;-65
2023/08/07 11:16:45;;;;;;;6.67;3.70;;;19.90;95.40;;;;;;5031550;28;20487;-65
2023/08/07 11:19:15;;;;;;;6.83;6.03;;;20.00;96.00;;;;;;5010151;28;20482;-66
2023/08/07 11:21:43;;;;;;;5.57;4.40;;;20.20;94.00;;;;;;4978941;28;20501;-66
2023/08/07 11:24:13;;;;;;;5.07;4.67;;;20.30;94.30;;;;;;5023481;28;20582;-66
2023/08/07 11:26:40;;;;;;;4.00;3.47;;;20.60;95.20;;;;;;5015082;28;20582;-66
2023/08/07 11:29:08;;;;;;;6.03;5.43;;;20.90;95.40;;;;;;5000904;28;20486;-66
2023/08/07 11:31:34;;;;;;;4.93;4.43;;;20.90;92.70;;;;;;5031342;28;21477;-64
2023/08/07 11:34:02;;;;;;;4.90;3.67;;;21.00;92.90;;;;;;5009847;28;20612;-65
2023/08/07 11:36:31;;;;;;;4.50;4.07;;;21.00;93.60;;;;;;5009431;28;20456;-66
2023/08/07 11:38:58;;;;;;;5.40;5.00;;;21.20;93.40;;;;;;4997388;28;20794;-65
2023/08/07 11:41:25;;;;;;;5.27;4.77;;;21.10;92.80;;;;;;5023128;28;20479;-64
2023/08/07 11:43:52;;;;;;;4.90;4.20;;;20.90;92.90;;;;;;5029309;28;21002;-65
2023/08/07 11:46:18;;;;;;;5.60;4.30;;;21.00;93.20;;;;;;5026988;28;20482;-65
2023/08/07 11:48:45;;;;;;;4.60;3.90;;;20.90;91.90;;;;;;5020647;28;20845;-65
2023/08/07 11:51:12;;;;;;;5.93;5.43;;;20.60;90.80;;;;;;5003465;28;20490;-63
2023/08/07 11:53:42;;;;;;;4.30;4.00;;;20.50;91.30;;;;;;5025719;28;20483;-64
2023/08/07 11:56:10;;;;;;;6.63;6.07;;;20.30;91.20;;;;;;5007989;28;20659;-65
2023/08/07 11:58:39;;;;;;;4.53;4.13;;;20.30;92.40;;;;;;5013740;28;20515;-66
2023/08/07 12:01:10;;;;;;;6.00;5.50;;;20.40;92.70;;;;;;5000517;28;20511;-65
2023/08/07 12:03:38;;;;;;;5.13;3.87;;;20.40;92.70;;;;;;5013387;28;20769;-65
2023/08/07 12:06:07;;;;;;;6.40;5.80;;;20.40;92.70;;;;;;5014474;28;20994;-65
2023/08/07 12:08:35;;;;;;;4.17;3.47;;;20.40;93.00;;;;;;5028774;28;20972;-66
2023/08/07 12:11:05;;;;;;;5.40;3.50;;;20.60;94.20;;;;;;5009959;28;20820;-64
2023/08/07 12:13:34;;;;;;;6.53;4.37;;;20.60;94.10;;;;;;5020453;28;20490;-65
2023/08/07 12:16:03;;;;;;;4.73;4.23;;;20.70;94.30;;;;;;5016568;28;20495;-65
2023/08/07 12:18:31;;;;;;;6.27;5.13;;;20.80;93.80;;;;;;4993713;28;20809;-65
2023/08/07 12:21:01;;;;;;;6.73;4.77;;;20.70;93.60;;;;;;5009290;28;20487;-65
2023/08/07 12:23:28;;;;;;;5.67;5.20;;;20.50;93.90;;;;;;5005195;28;20485;-65
2023/08/07 12:25:55;;;;;;;6.70;5.23;;;20.20;94.10;;;;;;5004439;28;20981;-62
2023/08/07 12:28:24;;;;;;;8.03;5.80;;;20.20;94.20;;;;;;5024581;28;20913;-64
2023/08/07 12:30:52;;;;;;;7.30;5.30;;;20.20;94.60;;;;;;5002139;28;20482;-65
2023/08/07 12:33:19;;;;;;;7.47;6.63;;;20.40;95.00;;;;;;4993040;28;20517;-64
2023/08/07 12:35:47;;;;;;;5.27;4.60;;;20.60;94.10;;;;;;4988587;28;20992;-65
2023/08/07 12:38:14;;;;;;;7.17;6.57;;;20.80;93.10;;;;;;4976698;28;20455;-64
2023/08/07 12:40:42;;;;;;;9.10;5.13;;;21.10;93.10;;;;;;5018941;28;20450;-65
2023/08/07 12:43:09;;;;;;;7.43;6.73;;;21.40;94.70;;;;;;5014832;28;20489;-64
2023/08/07 12:45:37;;;;;;;7.60;4.20;;;21.70;93.00;;;;;;5012526;28;20480;-65